首页
METAR-TAF:

METAR-TAF

机场 :

普里斯提納國際機場

普里什蒂纳, 科索沃

纬度: 42-34-27N, 经度: 21-02-09E, 海拔: 545米

当前天气观测

该预报发布于18分钟前的00:00 UTC
风速4节,风向
温度 9°C
湿度 87%
气压 1015 hPa
能见度10公里或以上
多云层高于3500英尺
小雨

METAR: BKPR 010000Z 35004KT 9999 -RA BKN035 09/07 Q1015 NOSIG

时间: 02:18 (00:18 UTC)

预报

该预报发布于48分钟前的23:30 UTC
预报有效从01日的 00点(UTC)到 01日的 24点(UTC)
风速8节,风向
能见度10公里或以上
多云层高于4000英尺
几率 30% :
短暂存在
从 01日的 02点(UTC)到 01日的 06点(UTC)
能見度: 3000
小雨, 轻雾

TAF: BKPR 312330Z 0100/0124 35008KT 9999 BKN040 PROB30 TEMPO 0102/0106 3000 -RA BR

超过4000个机场的气象观测和天气预报(METAR&TAF报告)。

可查询的气象台以黄色和红色小点在地图上表示。

将鼠标移到小点上方,可查看气象台名称。

然后点击查看天气观测和预报。

如需切换地图:点击带黑十字的绿色按钮放大地图;点击带横线的绿色按钮缩小地图;或者点击绿色箭头查看邻近地区的地图。


METAR-TAF: